Time;durP1;ratioP1;P1;durP2;ratioP2;P2;SDS_P1;SDS_P2;PMS_P1;PMS_P2;Temp;Humidity;BMP_temperature;BMP_pressure;BME280_temperature;BME280_humidity;BME280_pressure;Samples;Min_cycle;Max_cycle;Signal;HPM_P1;HPM_P2
2021/06/20 00:01:37;;;;;;;13.40;11.50;;;538.30;2406.40;;;;;;5091675;28;20158;-62
2021/06/20 00:04:03;;;;;;;15.70;11.48;;;538.30;2406.40;;;;;;5091820;28;20066;-61
2021/06/20 00:06:37;;;;;;;11.43;9.95;;;538.30;2406.40;;;;;;5091965;28;20056;-61
2021/06/20 00:09:08;;;;;;;13.50;12.15;;;538.40;2406.40;;;;;;5091932;28;20078;-64
2021/06/20 00:11:36;;;;;;;16.23;11.75;;;538.40;2406.40;;;;;;5091683;28;20054;-61
2021/06/20 00:14:03;;;;;;;16.45;12.30;;;538.40;2406.40;;;;;;5091755;28;20414;-62
2021/06/20 00:16:29;;;;;;;14.13;10.50;;;538.30;2406.40;;;;;;5091356;28;20109;-61
2021/06/20 00:18:55;;;;;;;11.63;10.43;;;538.30;2406.40;;;;;;5091546;28;20016;-60
2021/06/20 00:21:21;;;;;;;12.63;10.55;;;538.30;2406.40;;;;;;5091580;28;20033;-60
2021/06/20 00:23:47;;;;;;;14.82;11.25;;;538.30;2406.40;;;;;;5091145;28;20016;-61
2021/06/20 00:26:14;;;;;;;12.77;11.55;;;538.30;2406.40;;;;;;5091766;28;20024;-62
2021/06/20 00:28:40;;;;;;;17.25;11.27;;;538.40;2406.40;;;;;;5091575;28;20063;-60
2021/06/20 00:31:06;;;;;;;11.95;10.52;;;538.20;2406.40;;;;;;5091317;28;20066;-60
2021/06/20 00:33:32;;;;;;;11.35;10.13;;;538.40;2406.40;;;;;;5091491;28;20031;-60
2021/06/20 00:35:59;;;;;;;12.75;11.43;;;538.50;2406.40;;;;;;5091433;28;20020;-60
2021/06/20 00:38:25;;;;;;;10.70;9.68;;;538.50;2406.40;;;;;;5091202;28;20099;-60
2021/06/20 00:40:50;;;;;;;11.95;9.52;;;538.40;2406.40;;;;;;5091610;28;20173;-60
2021/06/20 00:43:16;;;;;;;11.32;10.13;;;538.50;2406.40;;;;;;5091275;28;20480;-61
2021/06/20 00:45:42;;;;;;;13.52;10.27;;;538.50;2406.40;;;;;;5091185;28;20057;-60
2021/06/20 00:48:08;;;;;;;13.20;10.40;;;538.50;2406.40;;;;;;5091273;28;20044;-60
2021/06/20 00:50:34;;;;;;;12.25;10.02;;;538.50;2406.40;;;;;;5090923;28;20098;-60
2021/06/20 00:53:01;;;;;;;10.27;9.20;;;538.50;2406.40;;;;;;5091139;28;20032;-61
2021/06/20 00:55:33;;;;;;;11.82;10.63;;;538.50;2406.40;;;;;;5090922;28;20024;-61
2021/06/20 00:58:00;;;;;;;11.85;10.65;;;538.50;2406.40;;;;;;5091036;28;20027;-60
2021/06/20 01:00:27;;;;;;;11.13;9.88;;;538.50;2406.40;;;;;;5090610;28;20470;-60
2021/06/20 01:02:53;;;;;;;12.68;11.48;;;538.40;2406.40;;;;;;5090742;28;20039;-61
2021/06/20 01:05:20;;;;;;;12.82;11.05;;;538.40;2406.40;;;;;;5091042;28;20028;-59
2021/06/20 01:07:53;;;;;;;15.38;11.95;;;538.20;2406.40;;;;;;5090659;28;20021;-60
2021/06/20 01:10:25;;;;;;;17.85;11.80;;;538.00;2406.40;;;;;;5090810;28;20028;-60
2021/06/20 01:12:50;;;;;;;15.48;11.65;;;537.90;2406.40;;;;;;5090852;28;20489;-60
2021/06/20 01:15:17;;;;;;;12.73;11.43;;;537.70;2406.40;;;;;;5090123;28;20063;-65
2021/06/20 01:17:44;;;;;;;13.10;10.95;;;537.80;2406.40;;;;;;5090529;28;20028;-61
2021/06/20 01:20:13;;;;;;;12.23;10.18;;;537.80;2406.40;;;;;;5090554;28;20064;-60
2021/06/20 01:22:41;;;;;;;13.68;11.00;;;537.80;2406.40;;;;;;5090640;28;20024;-66
2021/06/20 01:25:15;;;;;;;12.70;11.07;;;537.80;2406.40;;;;;;5090441;28;20032;-60
2021/06/20 01:27:50;;;;;;;12.70;11.15;;;537.80;2406.40;;;;;;5090695;28;20028;-60
2021/06/20 01:30:24;;;;;;;12.60;11.07;;;537.70;2406.40;;;;;;5090196;28;20458;-60
2021/06/20 01:32:50;;;;;;;14.02;9.32;;;537.70;2406.40;;;;;;5090560;28;20021;-59
2021/06/20 01:35:16;;;;;;;11.88;10.18;;;537.70;2406.40;;;;;;5089467;28;20024;-60
2021/06/20 01:37:42;;;;;;;13.00;10.60;;;537.80;2406.40;;;;;;5090766;28;20028;-64
2021/06/20 01:40:11;;;;;;;13.57;10.18;;;537.70;2406.40;;;;;;5090496;28;20040;-61
2021/06/20 01:42:38;;;;;;;11.63;9.52;;;537.80;2406.40;;;;;;5090087;28;20027;-60
2021/06/20 01:45:06;;;;;;;12.07;10.15;;;537.80;2406.40;;;;;;5089829;28;20036;-60
2021/06/20 01:47:32;;;;;;;18.15;11.60;;;537.80;2406.40;;;;;;5090213;28;20020;-62
2021/06/20 01:50:00;;;;;;;12.90;11.05;;;537.80;2406.40;;;;;;5090371;28;20024;-60
2021/06/20 01:52:27;;;;;;;12.18;10.13;;;537.70;2406.40;;;;;;5090131;28;20032;-60
2021/06/20 01:54:54;;;;;;;13.85;10.68;;;537.80;2406.40;;;;;;5089819;28;20025;-60
2021/06/20 01:57:31;;;;;;;14.25;10.50;;;537.80;2406.40;;;;;;5090220;28;20047;-60
2021/06/20 01:59:59;;;;;;;16.67;10.95;;;537.80;2406.40;;;;;;5089772;28;20028;-59
2021/06/20 02:02:26;;;;;;;13.60;11.43;;;537.90;2406.40;;;;;;5089899;28;20444;-60
2021/06/20 02:04:55;;;;;;;12.18;10.65;;;537.90;2406.40;;;;;;5090343;28;20119;-60
2021/06/20 02:07:22;;;;;;;13.23;11.15;;;537.80;2406.40;;;;;;5090305;28;20032;-60
2021/06/20 02:09:47;;;;;;;12.23;10.85;;;537.80;2406.40;;;;;;5090014;28;20024;-59
2021/06/20 02:12:14;;;;;;;10.43;9.43;;;537.80;2406.40;;;;;;5089710;28;20016;-61
2021/06/20 02:14:41;;;;;;;12.38;10.45;;;537.80;2406.40;;;;;;5089765;28;20127;-59
2021/06/20 02:17:30;;;;;;;12.10;10.32;;;537.80;2406.40;;;;;;5089365;28;20418;-60
2021/06/20 02:20:17;;;;;;;11.68;9.73;;;537.80;2406.40;;;;;;5089514;28;20093;-59
2021/06/20 02:22:43;;;;;;;16.92;11.18;;;537.80;2406.40;;;;;;5089874;28;20024;-61
2021/06/20 02:25:12;;;;;;;16.27;10.98;;;537.80;2406.40;;;;;;5089879;28;20036;-60
2021/06/20 02:27:38;;;;;;;15.25;10.30;;;537.80;2406.40;;;;;;5089783;28;20031;-59
2021/06/20 02:30:05;;;;;;;18.30;10.95;;;537.90;2406.40;;;;;;5089737;28;20024;-60
2021/06/20 02:32:31;;;;;;;17.15;11.73;;;537.80;2406.40;;;;;;5089826;28;20049;-61
2021/06/20 02:34:57;;;;;;;12.27;11.07;;;537.90;2406.40;;;;;;5089926;28;20028;-62
2021/06/20 02:37:23;;;;;;;10.82;9.73;;;537.80;2406.40;;;;;;5089695;28;20073;-62
2021/06/20 02:39:51;;;;;;;11.75;10.55;;;537.80;2406.40;;;;;;5089783;28;20498;-60
2021/06/20 02:42:17;;;;;;;18.52;11.55;;;537.80;2406.40;;;;;;5089534;28;20059;-60
2021/06/20 02:44:44;;;;;;;15.95;10.45;;;537.80;2406.40;;;;;;5089666;28;20092;-61
2021/06/20 02:47:10;;;;;;;14.63;10.52;;;537.80;2406.40;;;;;;5093058;28;20031;-59
2021/06/20 02:49:37;;;;;;;12.90;11.27;;;537.70;2406.40;;;;;;5093405;28;20046;-59
2021/06/20 02:52:04;;;;;;;13.68;11.25;;;537.60;2406.40;;;;;;5093364;28;20032;-61
2021/06/20 02:54:30;;;;;;;16.63;11.35;;;537.60;2406.40;;;;;;5092828;28;20023;-60
2021/06/20 02:56:57;;;;;;;13.55;10.85;;;537.60;2406.40;;;;;;5093067;28;20028;-59
2021/06/20 02:59:23;;;;;;;16.70;11.60;;;537.60;2406.40;;;;;;5093377;28;20378;-60
2021/06/20 03:01:48;;;;;;;12.07;10.35;;;537.60;2406.40;;;;;;5093214;28;20082;-60
2021/06/20 03:04:14;;;;;;;10.85;9.40;;;512.90;2380.80;;;;;;5093026;28;20051;-59
2021/06/20 03:06:40;;;;;;;10.50;9.45;;;512.80;2380.80;;;;;;5093327;28;20100;-60
2021/06/20 03:09:06;;;;;;;13.70;9.00;;;512.80;2380.80;;;;;;5092835;28;20452;-60
2021/06/20 03:11:37;;;;;;;11.98;9.25;;;512.80;2380.80;;;;;;5093082;28;20051;-59
2021/06/20 03:14:03;;;;;;;11.15;9.25;;;512.90;2380.80;;;;;;5092890;28;20032;-60
2021/06/20 03:16:29;;;;;;;14.45;9.95;;;512.90;2380.80;;;;;;5092781;28;20101;-60
2021/06/20 03:18:54;;;;;;;10.02;8.35;;;512.90;2380.80;;;;;;5092576;28;20032;-60
2021/06/20 03:21:20;;;;;;;11.70;8.68;;;537.60;2406.40;;;;;;5092898;28;20036;-61
2021/06/20 03:23:46;;;;;;;10.20;8.60;;;537.60;2406.40;;;;;;5092466;28;20016;-61
2021/06/20 03:26:12;;;;;;;11.18;9.57;;;537.60;2406.40;;;;;;5092771;28;20032;-62
2021/06/20 03:28:38;;;;;;;9.73;7.82;;;537.70;2406.40;;;;;;5092510;28;20023;-61
2021/06/20 03:31:04;;;;;;;10.23;7.95;;;537.80;2406.40;;;;;;5092629;28;20028;-60
2021/06/20 03:33:31;;;;;;;11.38;9.18;;;537.80;2406.40;;;;;;5092608;28;20124;-61
2021/06/20 03:35:57;;;;;;;9.07;8.15;;;538.00;2406.40;;;;;;5092507;28;20016;-60
2021/06/20 03:38:23;;;;;;;11.00;8.65;;;538.00;2406.40;;;;;;5092550;28;20406;-60
2021/06/20 03:40:49;;;;;;;9.50;8.35;;;538.20;2406.40;;;;;;5092572;28;20180;-60
2021/06/20 03:43:15;;;;;;;17.23;8.52;;;538.20;2406.40;;;;;;5092439;28;20489;-61
2021/06/20 03:45:41;;;;;;;11.82;8.50;;;538.20;2406.40;;;;;;5092380;28;20028;-61
2021/06/20 03:48:07;;;;;;;10.95;9.23;;;538.30;2406.40;;;;;;5092147;28;20470;-60
2021/06/20 03:50:33;;;;;;;10.93;8.68;;;538.30;2406.40;;;;;;5092255;28;20035;-61
2021/06/20 03:52:58;;;;;;;18.23;9.35;;;538.30;2406.40;;;;;;5092299;28;20052;-59
2021/06/20 03:55:24;;;;;;;15.05;8.73;;;538.30;2406.40;;;;;;5092137;28;20382;-60
2021/06/20 03:57:50;;;;;;;11.45;8.43;;;538.50;2406.40;;;;;;5091442;28;20023;-60
2021/06/20 04:00:16;;;;;;;10.60;8.95;;;538.50;2406.40;;;;;;5091964;28;20032;-60
2021/06/20 04:02:42;;;;;;;12.80;8.07;;;563.30;2432.00;;;;;;5092042;28;20020;-60
2021/06/20 04:05:10;;;;;;;9.90;8.90;;;563.30;2432.00;;;;;;5092177;28;20028;-60
2021/06/20 04:07:36;;;;;;;12.30;9.57;;;563.50;2432.00;;;;;;5091770;28;20363;-61
2021/06/20 04:10:03;;;;;;;10.88;9.32;;;563.60;2432.00;;;;;;5091810;28;20030;-60
2021/06/20 04:12:30;;;;;;;11.80;8.35;;;563.70;2432.00;;;;;;5091784;28;20024;-60
2021/06/20 04:14:55;;;;;;;9.70;8.23;;;563.80;2432.00;;;;;;5091387;28;20490;-60
2021/06/20 04:17:22;;;;;;;12.00;8.70;;;563.90;2432.00;;;;;;5091906;28;20110;-58
2021/06/20 04:19:48;;;;;;;9.13;8.13;;;563.90;2432.00;;;;;;5091809;28;20028;-60
2021/06/20 04:22:14;;;;;;;13.95;9.52;;;564.00;2432.00;;;;;;5091449;28;20028;-59
2021/06/20 04:24:40;;;;;;;11.35;8.75;;;564.00;2432.00;;;;;;5091659;28;20076;-60
2021/06/20 04:27:06;;;;;;;10.75;8.90;;;564.10;2432.00;;;;;;5091465;28;20168;-63
2021/06/20 04:29:32;;;;;;;11.82;9.20;;;588.80;2432.00;;;;;;5091624;28;20024;-62
2021/06/20 04:31:58;;;;;;;11.55;9.88;;;589.00;2432.00;;;;;;5091499;28;20034;-61
2021/06/20 04:34:23;;;;;;;12.27;10.80;;;615.20;2432.00;;;;;;5091197;28;20031;-61
2021/06/20 04:36:49;;;;;;;10.50;9.50;;;691.20;2380.80;;;;;;5091528;28;20016;-64
2021/06/20 04:39:15;;;;;;;10.63;9.25;;;742.60;2150.40;;;;;;5091207;28;20081;-61
2021/06/20 04:41:41;;;;;;;10.80;7.68;;;794.10;1945.60;;;;;;5091520;28;20032;-61
2021/06/20 04:46:51;;;;;;;9.35;7.82;;;871.10;1587.20;;;;;;5091240;28;20027;-60
2021/06/20 04:49:19;;;;;;;10.75;9.40;;;896.60;1484.80;;;;;;5091087;28;20016;-62
2021/06/20 04:51:45;;;;;;;14.45;9.52;;;922.00;1433.60;;;;;;5090891;28;20044;-61
2021/06/20 04:54:13;;;;;;;15.65;11.77;;;947.70;1356.80;;;;;;5091181;28;20077;-62
2021/06/20 04:56:39;;;;;;;15.30;13.82;;;948.10;1280.00;;;;;;5091041;28;20462;-63
2021/06/20 04:59:06;;;;;;;11.85;10.80;;;973.60;1228.80;;;;;;5090851;28;20035;-64
2021/06/20 05:01:32;;;;;;;13.82;12.70;;;998.50;1228.80;;;;;;5090636;28;20513;-61
2021/06/20 05:03:58;;;;;;;13.38;11.98;;;999.10;1177.60;;;;;;5091039;28;20020;-61
2021/06/20 05:06:23;;;;;;;13.27;12.27;;;998.50;1177.60;;;;;;5090676;28;20078;-61
2021/06/20 05:08:50;;;;;;;13.23;12.23;;;998.60;1177.60;;;;;;5090745;28;20027;-62
2021/06/20 05:11:16;;;;;;;10.05;9.15;;;973.00;1203.20;;;;;;5090547;28;20028;-63
2021/06/20 05:13:42;;;;;;;12.07;11.02;;;947.30;1254.40;;;;;;5090962;28;20044;-64
2021/06/20 05:16:08;;;;;;;13.60;12.50;;;922.30;1280.00;;;;;;5090209;28;20103;-63
2021/06/20 05:18:34;;;;;;;12.40;11.50;;;947.70;1228.80;;;;;;5090151;28;20462;-61
2021/06/20 05:21:00;;;;;;;13.07;12.07;;;973.10;1228.80;;;;;;5090449;28;20036;-59
2021/06/20 05:23:26;;;;;;;13.02;12.18;;;999.10;1152.00;;;;;;5090312;28;20472;-60
2021/06/20 05:25:53;;;;;;;11.18;10.07;;;1024.90;1100.80;;;;;;5090534;28;20032;-61
2021/06/20 05:28:19;;;;;;;9.38;8.57;;;1024.50;1100.80;;;;;;5090457;28;20065;-62
2021/06/20 05:30:45;;;;;;;9.77;8.70;;;1050.20;1075.20;;;;;;5090338;28;20055;-62
2021/06/20 05:33:16;;;;;;;11.10;8.73;;;1100.80;1024.00;;;;;;5090794;28;20447;-63
2021/06/20 05:35:41;;;;;;;10.38;8.57;;;1126.40;998.40;;;;;;5090777;28;20382;-63
2021/06/20 05:38:07;;;;;;;11.70;10.88;;;1127.10;947.20;;;;;;5090280;28;20024;-61
2021/06/20 05:40:38;;;;;;;14.10;12.93;;;1127.10;921.60;;;;;;5090100;28;20118;-61
2021/06/20 05:43:04;;;;;;;14.32;13.35;;;1127.30;921.60;;;;;;5090214;28;20024;-60
2021/06/20 05:45:31;;;;;;;13.45;12.52;;;1152.00;921.60;;;;;;5090063;28;20439;-65
2021/06/20 05:47:56;;;;;;;12.57;11.63;;;1177.60;844.80;;;;;;5088665;28;20043;-60
2021/06/20 05:50:22;;;;;;;13.52;12.52;;;1203.20;819.20;;;;;;5088897;28;20032;-60
2021/06/20 05:52:48;;;;;;;14.57;13.32;;;1178.50;819.20;;;;;;5088645;28;20489;-60
2021/06/20 05:55:14;;;;;;;14.18;13.23;;;1203.60;793.60;;;;;;5088351;28;20024;-59
2021/06/20 05:57:40;;;;;;;14.75;13.63;;;1228.90;793.60;;;;;;5088892;28;20599;-60
2021/06/20 06:00:08;;;;;;;16.15;14.77;;;1229.00;793.60;;;;;;5089803;28;20069;-63
2021/06/20 06:02:34;;;;;;;15.45;14.18;;;1229.00;768.00;;;;;;5089877;28;20028;-61
2021/06/20 06:05:00;;;;;;;15.63;14.45;;;1229.20;768.00;;;;;;5089998;28;20024;-61
2021/06/20 06:07:26;;;;;;;17.30;16.33;;;1229.50;742.40;;;;;;5089995;28;20027;-61
2021/06/20 06:09:51;;;;;;;17.92;16.83;;;1254.60;742.40;;;;;;5090024;28;20386;-61
2021/06/20 06:12:21;;;;;;;18.80;17.63;;;1254.80;716.80;;;;;;5089750;28;20024;-60
2021/06/20 06:14:47;;;;;;;18.35;17.17;;;1255.30;716.80;;;;;;5089477;28;20051;-66
2021/06/20 06:17:13;;;;;;;17.60;16.65;;;1254.90;716.80;;;;;;5089006;28;20119;-60
2021/06/20 06:19:39;;;;;;;18.50;17.40;;;1254.60;716.80;;;;;;5089717;28;20107;-62
2021/06/20 06:22:04;;;;;;;18.83;17.67;;;1280.70;665.60;;;;;;5093110;28;20081;-61
2021/06/20 06:24:30;;;;;;;19.50;18.25;;;1280.50;665.60;;;;;;5093996;28;20434;-62
2021/06/20 06:26:56;;;;;;;20.15;18.38;;;1255.30;691.20;;;;;;5093484;28;20028;-60
2021/06/20 06:29:21;;;;;;;20.13;18.70;;;1255.10;691.20;;;;;;5094122;28;20024;-61
2021/06/20 06:31:47;;;;;;;20.17;19.08;;;1255.10;691.20;;;;;;5093629;28;20103;-67
2021/06/20 06:34:13;;;;;;;18.77;17.58;;;1280.20;640.00;;;;;;5093008;28;20488;-61
2021/06/20 06:36:39;;;;;;;19.80;18.70;;;1280.00;665.60;;;;;;5092268;28;20069;-60
2021/06/20 06:39:05;;;;;;;20.40;18.90;;;1280.00;665.60;;;;;;5093174;28;20008;-60
2021/06/20 06:41:31;;;;;;;20.58;19.42;;;1280.70;640.00;;;;;;5092899;28;20462;-62
2021/06/20 06:43:57;;;;;;;21.02;19.58;;;1306.00;614.40;;;;;;5092650;28;20016;-64
2021/06/20 06:46:23;;;;;;;20.55;19.13;;;1306.00;588.80;;;;;;5092322;28;20044;-61
2021/06/20 06:48:49;;;;;;;19.15;18.10;;;1305.70;614.40;;;;;;5092642;28;20048;-61
2021/06/20 06:51:15;;;;;;;19.00;18.02;;;1331.20;614.40;;;;;;5092605;28;20028;-67
2021/06/20 06:53:40;;;;;;;20.02;18.88;;;1331.20;614.40;;;;;;5089874;28;20121;-66
2021/06/20 06:56:06;;;;;;;19.60;18.50;;;1331.20;614.40;;;;;;5092235;28;20485;-62
2021/06/20 06:58:32;;;;;;;20.92;19.42;;;1331.60;588.80;;;;;;5090957;28;20574;-60
2021/06/20 07:00:58;;;;;;;19.33;18.15;;;1331.40;614.40;;;;;;5090027;28;20162;-62
2021/06/20 07:03:24;;;;;;;18.63;17.63;;;1331.20;614.40;;;;;;5088530;28;20028;-61
2021/06/20 07:05:49;;;;;;;19.73;18.52;;;1356.90;588.80;;;;;;5090826;28;20023;-61
2021/06/20 07:08:15;;;;;;;19.77;18.27;;;1357.20;588.80;;;;;;5090533;28;20031;-61
2021/06/20 07:10:41;;;;;;;18.27;17.33;;;1382.40;563.20;;;;;;5088089;28;20039;-64
2021/06/20 07:13:07;;;;;;;18.30;17.27;;;1357.20;588.80;;;;;;5089696;28;20026;-60
2021/06/20 07:15:33;;;;;;;19.50;18.30;;;1357.20;563.20;;;;;;5096568;28;20051;-60
2021/06/20 07:17:59;;;;;;;19.38;18.23;;;1383.10;563.20;;;;;;5106968;28;20449;-62
2021/06/20 07:20:25;;;;;;;18.25;17.30;;;1357.70;563.20;;;;;;5110552;28;20028;-66
2021/06/20 07:22:51;;;;;;;17.40;16.17;;;1383.10;563.20;;;;;;5108070;28;20051;-65
2021/06/20 07:25:20;;;;;;;18.52;17.42;;;1357.70;563.20;;;;;;5099054;28;20380;-61
2021/06/20 07:27:46;;;;;;;17.75;16.65;;;1382.60;563.20;;;;;;5100855;28;20061;-63
2021/06/20 07:30:15;;;;;;;18.60;17.42;;;1383.30;563.20;;;;;;5101398;28;20024;-54
2021/06/20 07:32:42;;;;;;;16.67;15.75;;;1357.40;563.20;;;;;;5098393;28;20020;-53
2021/06/20 07:35:08;;;;;;;16.05;14.95;;;1331.90;563.20;;;;;;5100819;28;20054;-53
2021/06/20 07:37:34;;;;;;;16.63;15.50;;;1331.40;588.80;;;;;;5100713;28;20016;-53
2021/06/20 07:40:00;;;;;;;16.75;15.80;;;1305.60;588.80;;;;;;5099410;28;20032;-52
2021/06/20 07:42:26;;;;;;;16.20;15.20;;;1306.00;563.20;;;;;;5100574;28;20049;-53
2021/06/20 07:44:52;;;;;;;14.98;13.95;;;1305.90;563.20;;;;;;5103488;28;20461;-53
2021/06/20 07:47:18;;;;;;;15.20;14.30;;;1280.40;614.40;;;;;;5099497;28;20016;-53
2021/06/20 07:49:43;;;;;;;15.70;14.75;;;1280.70;588.80;;;;;;5101002;28;20022;-53
2021/06/20 07:52:10;;;;;;;14.82;13.65;;;1280.40;614.40;;;;;;5100184;28;20012;-52
2021/06/20 07:54:36;;;;;;;9.77;8.95;;;1305.60;588.80;;;;;;5099251;28;20028;-53
2021/06/20 07:57:02;;;;;;;14.13;13.23;;;1228.80;691.20;;;;;;5101148;28;20099;-53
2021/06/20 07:59:28;;;;;;;12.18;11.38;;;1203.20;665.60;;;;;;5100039;28;20097;-53
2021/06/20 08:01:53;;;;;;;13.25;12.45;;;1229.20;665.60;;;;;;5099207;28;20031;-52
2021/06/20 08:04:19;;;;;;;11.20;10.25;;;1229.30;614.40;;;;;;5100948;28;20015;-53
2021/06/20 08:06:45;;;;;;;12.30;11.32;;;1229.50;588.80;;;;;;5099559;28;20480;-53
2021/06/20 08:09:11;;;;;;;11.70;11.10;;;1229.70;588.80;;;;;;5099928;28;20192;-52
2021/06/20 08:11:36;;;;;;;12.02;11.32;;;1229.70;588.80;;;;;;5100695;28;20051;-62
2021/06/20 08:14:04;;;;;;;11.55;10.55;;;1204.10;614.40;;;;;;5098354;28;20020;-55
2021/06/20 08:16:31;;;;;;;10.82;9.07;;;1152.40;665.60;;;;;;5098871;28;20062;-53
2021/06/20 08:18:57;;;;;;;9.05;8.30;;;1101.00;768.00;;;;;;5100465;28;20104;-52
2021/06/20 08:21:22;;;;;;;8.35;7.20;;;1049.70;844.80;;;;;;5098011;28;20072;-53
2021/06/20 08:23:51;;;;;;;7.57;6.88;;;999.10;870.40;;;;;;5096107;28;20024;-52
2021/06/20 08:26:17;;;;;;;7.60;6.82;;;973.40;896.00;;;;;;5089693;28;20516;-51
2021/06/20 08:28:43;;;;;;;6.35;5.72;;;948.10;921.60;;;;;;5089869;28;20039;-54
2021/06/20 08:31:09;;;;;;;8.40;6.38;;;947.60;921.60;;;;;;5089700;28;20039;-52
2021/06/20 08:33:35;;;;;;;6.70;6.00;;;922.50;947.20;;;;;;5090703;28;20028;-52
2021/06/20 08:36:01;;;;;;;6.72;6.07;;;922.00;998.40;;;;;;5096950;28;20054;-65
2021/06/20 08:38:26;;;;;;;8.48;6.60;;;921.80;998.40;;;;;;5111605;28;20016;-50
2021/06/20 08:40:56;;;;;;;6.65;6.05;;;896.90;972.80;;;;;;5094177;28;20044;-52
2021/06/20 08:43:23;;;;;;;7.60;5.80;;;921.80;1024.00;;;;;;5090760;28;20102;-52
2021/06/20 08:45:54;;;;;;;7.90;6.00;;;922.00;1024.00;;;;;;5091271;28;20028;-52
2021/06/20 08:48:20;;;;;;;6.72;6.03;;;921.70;1024.00;;;;;;5090752;28;20024;-50
2021/06/20 08:50:51;;;;;;;6.97;6.28;;;921.70;1049.60;;;;;;5092531;28;20132;-52
2021/06/20 08:53:19;;;;;;;7.68;6.60;;;921.70;1024.00;;;;;;5093884;28;20474;-52
2021/06/20 08:55:46;;;;;;;9.52;7.00;;;896.90;1024.00;;;;;;5093549;28;20103;-55
2021/06/20 08:58:21;;;;;;;7.05;6.43;;;896.50;1049.60;;;;;;5102005;28;20122;-52
2021/06/20 09:00:47;;;;;;;7.15;6.25;;;896.70;1024.00;;;;;;5092530;28;20089;-52
2021/06/20 09:03:13;;;;;;;14.32;6.25;;;896.50;1024.00;;;;;;5087456;28;20032;-62
2021/06/20 09:05:39;;;;;;;9.05;5.63;;;896.10;1024.00;;;;;;5101130;28;20484;-51
2021/06/20 09:08:16;;;;;;;6.95;6.15;;;896.00;1024.00;;;;;;5081985;28;20021;-71
2021/06/20 09:10:41;;;;;;;6.07;5.47;;;871.10;1024.00;;;;;;5088829;28;20036;-52
2021/06/20 09:13:07;;;;;;;7.70;6.13;;;870.90;1049.60;;;;;;5078823;28;20023;-65
2021/06/20 09:15:34;;;;;;;7.90;6.25;;;870.90;1075.20;;;;;;5075570;28;20056;-52
2021/06/20 09:18:08;;;;;;;6.65;6.05;;;870.80;1075.20;;;;;;5085576;28;20024;-53
2021/06/20 09:20:37;;;;;;;8.05;6.50;;;870.90;1075.20;;;;;;5090112;28;20036;-52
2021/06/20 09:23:08;;;;;;;8.40;6.40;;;870.50;1100.80;;;;;;5090418;28;20394;-55
2021/06/20 09:25:34;;;;;;;7.13;5.47;;;870.70;1100.80;;;;;;5089777;28;20035;-53
2021/06/20 09:28:01;;;;;;;6.57;5.32;;;870.70;1075.20;;;;;;5090730;28;20401;-52
2021/06/20 09:30:30;;;;;;;5.78;5.18;;;870.50;1100.80;;;;;;5089830;28;20016;-52
2021/06/20 09:33:05;;;;;;;6.28;5.13;;;845.70;1100.80;;;;;;5089643;28;20032;-52
2021/06/20 09:35:44;;;;;;;6.13;5.18;;;845.70;1075.20;;;;;;5089736;28;20103;-52
2021/06/20 09:38:20;;;;;;;5.72;5.05;;;845.70;1100.80;;;;;;5090103;28;20052;-52
2021/06/20 09:40:46;;;;;;;7.07;5.30;;;845.70;1075.20;;;;;;5089505;28;20046;-52
2021/06/20 09:43:17;;;;;;;6.38;5.78;;;845.70;1075.20;;;;;;5089855;28;20028;-55
2021/06/20 09:45:45;;;;;;;6.53;5.68;;;870.40;1100.80;;;;;;5086983;28;20067;-53
2021/06/20 09:48:22;;;;;;;7.00;6.30;;;870.50;1100.80;;;;;;5088633;28;20024;-52
2021/06/20 09:50:48;;;;;;;11.30;7.22;;;870.40;1100.80;;;;;;5089791;28;20463;-52
2021/06/20 09:53:14;;;;;;;9.35;6.80;;;845.70;1100.80;;;;;;5089937;28;20032;-52
2021/06/20 09:55:40;;;;;;;6.47;5.63;;;845.70;1100.80;;;;;;5087566;28;20351;-59
2021/06/20 09:58:05;;;;;;;6.30;5.38;;;845.40;1100.80;;;;;;5089795;28;20632;-51
2021/06/20 10:00:42;;;;;;;5.50;5.00;;;845.10;1126.40;;;;;;5089613;28;20044;-50
2021/06/20 10:03:08;;;;;;;6.13;5.32;;;845.20;1100.80;;;;;;5089257;28;20028;-53
2021/06/20 10:05:34;;;;;;;5.95;4.45;;;845.20;1100.80;;;;;;5088812;28;20035;-54
2021/06/20 10:08:03;;;;;;;4.97;4.43;;;845.20;1024.00;;;;;;5088312;28;20016;-52
2021/06/20 10:10:30;;;;;;;5.32;4.70;;;845.20;1049.60;;;;;;5089555;28;20394;-53
2021/06/20 10:12:56;;;;;;;5.28;4.78;;;844.80;1100.80;;;;;;5085866;28;20093;-59
2021/06/20 10:15:22;;;;;;;5.88;5.03;;;844.90;1126.40;;;;;;5079345;28;20048;-51
2021/06/20 10:17:57;;;;;;;7.57;6.07;;;845.00;1126.40;;;;;;5084867;28;20089;-60
2021/06/20 10:20:31;;;;;;;6.88;6.18;;;845.00;1126.40;;;;;;5081280;28;20059;-52
2021/06/20 10:22:57;;;;;;;5.72;5.22;;;845.00;1126.40;;;;;;5088587;28;20024;-52
2021/06/20 10:25:31;;;;;;;5.43;4.93;;;845.10;1126.40;;;;;;5087129;28;20031;-53
2021/06/20 10:28:21;;;;;;;7.95;5.28;;;845.10;1126.40;;;;;;5088135;28;20077;-52
2021/06/20 10:30:47;;;;;;;8.07;5.68;;;845.10;1100.80;;;;;;5069751;28;20028;-50
2021/06/20 10:33:26;;;;;;;6.53;5.25;;;845.10;1177.60;;;;;;5087573;28;20024;-53
2021/06/20 10:36:06;;;;;;;5.88;4.78;;;845.00;1126.40;;;;;;5088381;28;20482;-52
2021/06/20 10:38:38;;;;;;;5.90;5.30;;;844.90;1100.80;;;;;;5087367;28;20039;-52
2021/06/20 10:41:09;;;;;;;5.68;5.00;;;844.90;1100.80;;;;;;5087754;28;20398;-53
2021/06/20 10:43:35;;;;;;;5.32;4.82;;;845.10;1126.40;;;;;;5067806;28;20021;-49
2021/06/20 10:46:12;;;;;;;8.20;5.13;;;844.90;1100.80;;;;;;5067984;28;20470;-52
2021/06/20 10:48:38;;;;;;;5.90;5.40;;;845.00;1100.80;;;;;;5067590;28;20036;-51
2021/06/20 10:51:15;;;;;;;5.47;4.80;;;844.90;1100.80;;;;;;5086543;28;20369;-53
2021/06/20 10:53:42;;;;;;;6.28;4.78;;;844.80;1100.80;;;;;;5087871;28;20077;-52
2021/06/20 10:56:23;;;;;;;5.78;4.90;;;820.10;1075.20;;;;;;5087842;28;20088;-52
2021/06/20 10:58:51;;;;;;;7.97;5.15;;;819.80;1075.20;;;;;;5087968;28;20466;-53
2021/06/20 11:01:22;;;;;;;7.13;4.53;;;820.10;1100.80;;;;;;5087707;28;20561;-52
2021/06/20 11:03:51;;;;;;;5.20;4.70;;;819.90;1049.60;;;;;;5087353;28;20473;-52
2021/06/20 11:06:28;;;;;;;7.30;5.18;;;844.90;1100.80;;;;;;5087810;28;20490;-52
2021/06/20 11:09:04;;;;;;;6.30;4.88;;;844.90;1152.00;;;;;;5091001;28;20546;-53
2021/06/20 11:11:32;;;;;;;4.53;4.13;;;844.90;1126.40;;;;;;5091439;28;20032;-50
2021/06/20 11:13:58;;;;;;;5.97;4.15;;;820.10;1075.20;;;;;;5091460;28;20028;-52
2021/06/20 11:16:27;;;;;;;4.75;4.30;;;844.80;1075.20;;;;;;5090226;28;20520;-52
2021/06/20 11:19:07;;;;;;;10.75;4.40;;;820.10;1100.80;;;;;;5090825;28;20268;-51
2021/06/20 11:21:35;;;;;;;5.05;4.07;;;820.10;1100.80;;;;;;5090877;28;20088;-52
2021/06/20 11:24:01;;;;;;;4.68;4.10;;;820.10;1100.80;;;;;;5090771;28;20412;-51
2021/06/20 11:26:27;;;;;;;5.70;4.15;;;820.10;1075.20;;;;;;5089828;28;20028;-52
2021/06/20 11:29:06;;;;;;;6.00;4.28;;;819.80;1049.60;;;;;;5077547;28;20085;-51
2021/06/20 11:31:42;;;;;;;4.80;4.30;;;819.90;998.40;;;;;;5070698;28;20048;-51
2021/06/20 11:34:09;;;;;;;6.32;4.20;;;820.10;1075.20;;;;;;5070984;28;20031;-56
2021/06/20 11:36:35;;;;;;;4.70;3.92;;;820.10;1049.60;;;;;;5070958;28;20108;-53
2021/06/20 11:39:10;;;;;;;5.30;4.25;;;820.10;1049.60;;;;;;5073133;28;20457;-53
2021/06/20 11:41:47;;;;;;;4.25;3.83;;;820.10;1075.20;;;;;;5087708;28;20065;-51
2021/06/20 11:44:14;;;;;;;4.38;3.85;;;820.00;1024.00;;;;;;5090127;28;20031;-52
2021/06/20 11:46:45;;;;;;;4.85;3.50;;;819.80;1024.00;;;;;;5092068;28;20035;-52
2021/06/20 11:49:17;;;;;;;4.22;3.78;;;820.10;1049.60;;;;;;5092329;28;20099;-51
2021/06/20 11:51:44;;;;;;;5.43;4.23;;;820.10;1024.00;;;;;;5092410;28;20111;-51
2021/06/20 11:54:28;;;;;;;7.28;4.25;;;820.10;1049.60;;;;;;5074271;28;20366;-51
2021/06/20 11:57:05;;;;;;;5.72;4.45;;;820.10;1049.60;;;;;;5090512;28;20024;-52
2021/06/20 11:59:32;;;;;;;5.00;4.50;;;844.80;1100.80;;;;;;5091401;28;20020;-52
2021/06/20 12:01:58;;;;;;;5.80;4.35;;;819.90;1075.20;;;;;;5091789;28;20474;-52
2021/06/20 12:04:27;;;;;;;5.80;4.32;;;819.80;1100.80;;;;;;5091680;28;20032;-52
2021/06/20 12:06:53;;;;;;;5.00;4.43;;;820.10;1100.80;;;;;;5092056;28;20035;-52
2021/06/20 12:09:22;;;;;;;5.85;4.75;;;820.10;1049.60;;;;;;5072618;28;20527;-51
2021/06/20 12:12:02;;;;;;;5.03;4.35;;;844.80;1049.60;;;;;;5091503;28;20031;-52